Time;durP1;ratioP1;P1;durP2;ratioP2;P2;SDS_P1;SDS_P2;PMS_P1;PMS_P2;Temp;Humidity;BMP_temperature;BMP_pressure;BME280_temperature;BME280_humidity;BME280_pressure;Samples;Min_cycle;Max_cycle;Signal;HPM_P1;HPM_P2
2023/07/20 00:02:08;;;;;;;1.40;1.30;;;15.80;99.90;;;;;;5073536;28;20510;-59
2023/07/20 00:04:36;;;;;;;1.57;1.47;;;15.80;99.90;;;;;;5073669;28;20445;-60
2023/07/20 00:07:04;;;;;;;2.10;1.53;;;15.80;99.90;;;;;;5073512;28;20439;-59
2023/07/20 00:09:31;;;;;;;1.40;1.30;;;15.70;99.90;;;;;;5074174;28;20533;-58
2023/07/20 00:11:59;;;;;;;1.60;1.40;;;15.70;99.90;;;;;;5073828;28;20466;-58
2023/07/20 00:14:27;;;;;;;1.40;1.30;;;15.70;99.90;;;;;;5073905;28;20454;-57
2023/07/20 00:16:56;;;;;;;1.83;1.50;;;15.70;99.90;;;;;;5073681;28;20487;-60
2023/07/20 00:19:24;;;;;;;2.10;1.90;;;15.70;99.90;;;;;;5074355;28;20441;-59
2023/07/20 00:21:53;;;;;;;1.43;1.33;;;15.60;99.90;;;;;;5074140;28;20463;-59
2023/07/20 00:24:19;;;;;;;1.70;1.13;;;15.60;99.90;;;;;;5072915;28;20451;-58
2023/07/20 00:26:46;;;;;;;1.83;1.53;;;15.60;99.90;;;;;;5073572;28;20466;-60
2023/07/20 00:29:13;;;;;;;2.60;1.77;;;15.60;99.90;;;;;;5076962;28;20463;-58
2023/07/20 00:31:40;;;;;;;1.20;1.10;;;15.60;99.90;;;;;;5077002;28;20463;-59
2023/07/20 00:34:07;;;;;;;1.80;1.50;;;15.60;99.90;;;;;;5077170;28;21026;-59
2023/07/20 00:36:34;;;;;;;2.10;1.90;;;15.60;99.90;;;;;;5078317;28;20481;-58
2023/07/20 00:39:02;;;;;;;1.60;1.50;;;15.60;99.90;;;;;;5077518;28;20451;-59
2023/07/20 00:41:29;;;;;;;1.60;1.50;;;15.50;99.90;;;;;;5077069;28;20524;-58
2023/07/20 00:43:57;;;;;;;1.93;1.73;;;15.50;99.90;;;;;;5077309;28;20475;-59
2023/07/20 00:46:25;;;;;;;1.97;1.70;;;15.40;99.90;;;;;;5076788;28;20435;-59
2023/07/20 00:48:53;;;;;;;1.50;1.40;;;15.40;99.90;;;;;;5077039;28;20444;-60
2023/07/20 00:51:20;;;;;;;3.43;2.37;;;15.30;99.90;;;;;;5098023;22;20455;-57
2023/07/20 00:53:47;;;;;;;2.23;1.83;;;15.30;99.90;;;;;;5056844;28;20438;-58
2023/07/20 00:56:16;;;;;;;1.97;1.57;;;15.30;99.90;;;;;;5056057;28;20821;-58
2023/07/20 00:58:44;;;;;;;1.60;1.50;;;15.30;99.90;;;;;;5056772;28;20551;-58
2023/07/20 01:01:10;;;;;;;2.80;2.00;;;15.30;99.90;;;;;;5056151;28;20545;-57
2023/07/20 01:03:38;;;;;;;2.63;1.50;;;15.20;99.90;;;;;;5056116;28;20446;-56
2023/07/20 01:06:15;;;;;;;1.77;1.40;;;15.20;99.90;;;;;;5056145;28;20455;-58
2023/07/20 01:08:52;;;;;;;1.70;1.60;;;15.20;99.90;;;;;;5055777;28;20934;-59
2023/07/20 01:11:25;;;;;;;1.80;1.70;;;15.20;99.90;;;;;;5056631;28;20431;-58
2023/07/20 01:13:52;;;;;;;2.07;1.57;;;15.10;99.90;;;;;;5056065;28;20429;-58
2023/07/20 01:16:19;;;;;;;2.00;1.80;;;15.10;99.90;;;;;;5055662;28;20444;-56
2023/07/20 01:18:46;;;;;;;3.50;1.90;;;15.00;99.90;;;;;;5056078;28;20447;-58
2023/07/20 01:21:19;;;;;;;2.00;1.80;;;15.00;99.90;;;;;;5056281;28;20467;-58
2023/07/20 01:24:16;;;;;;;1.70;1.60;;;15.00;99.90;;;;;;5055607;28;20427;-56
2023/07/20 01:27:05;;;;;;;3.33;2.90;;;15.00;99.90;;;;;;5039740;28;20453;-56
2023/07/20 01:29:52;;;;;;;2.97;2.67;;;15.00;99.90;;;;;;5055529;28;20432;-56
2023/07/20 01:32:24;;;;;;;4.00;3.40;;;15.00;99.90;;;;;;5055548;28;20472;-55
2023/07/20 01:34:55;;;;;;;6.20;3.60;;;15.00;99.90;;;;;;5055592;28;20424;-56
2023/07/20 01:37:25;;;;;;;3.83;3.23;;;14.90;99.90;;;;;;5055258;28;20479;-57
2023/07/20 01:39:55;;;;;;;7.53;3.10;;;14.90;99.90;;;;;;5054679;28;20448;-56
2023/07/20 01:42:22;;;;;;;2.67;2.13;;;14.90;99.90;;;;;;5055483;28;20526;-56
2023/07/20 01:44:51;;;;;;;4.13;2.30;;;14.90;99.90;;;;;;5055232;28;20455;-56
2023/07/20 01:47:18;;;;;;;2.33;2.00;;;14.90;99.90;;;;;;5055476;28;20440;-56
2023/07/20 01:49:46;;;;;;;3.17;2.40;;;14.90;99.90;;;;;;5055487;28;20471;-57
2023/07/20 01:52:13;;;;;;;3.80;2.33;;;15.00;99.90;;;;;;5055043;28;20484;-54
2023/07/20 01:54:39;;;;;;;3.53;2.47;;;15.00;99.90;;;;;;5055053;28;21012;-56
2023/07/20 01:57:06;;;;;;;3.53;1.97;;;15.00;99.90;;;;;;5055231;28;20853;-56
2023/07/20 01:59:33;;;;;;;4.47;1.80;;;15.00;99.90;;;;;;5055246;28;20447;-57
2023/07/20 02:02:00;;;;;;;2.27;2.07;;;15.10;99.90;;;;;;5055132;28;20467;-56
2023/07/20 02:04:26;;;;;;;2.20;1.90;;;15.20;99.90;;;;;;5055136;28;20448;-56
2023/07/20 02:06:55;;;;;;;7.27;2.03;;;15.20;99.90;;;;;;5055119;28;20444;-57
2023/07/20 02:09:21;;;;;;;2.23;1.97;;;15.30;99.90;;;;;;5055040;28;20535;-57
2023/07/20 02:11:48;;;;;;;1.90;1.80;;;15.30;99.90;;;;;;5054568;28;20985;-56
2023/07/20 02:14:15;;;;;;;5.97;1.77;;;15.30;99.90;;;;;;5054824;28;20449;-56
2023/07/20 02:16:42;;;;;;;1.80;1.57;;;15.20;99.90;;;;;;5054827;28;20455;-57
2023/07/20 02:19:08;;;;;;;1.80;1.70;;;15.20;99.90;;;;;;5054838;28;20470;-56
2023/07/20 02:21:35;;;;;;;1.73;1.40;;;15.20;99.90;;;;;;5054636;28;20476;-58
2023/07/20 02:24:04;;;;;;;1.67;1.57;;;15.10;99.90;;;;;;5054662;28;20440;-57
2023/07/20 02:26:30;;;;;;;1.93;1.77;;;15.10;99.90;;;;;;5054588;28;20451;-57
2023/07/20 02:28:57;;;;;;;3.20;1.90;;;15.00;99.90;;;;;;5054749;28;20444;-57
2023/07/20 02:31:24;;;;;;;1.47;1.30;;;15.00;99.90;;;;;;5054553;28;20475;-57
2023/07/20 02:33:50;;;;;;;2.90;1.73;;;15.00;99.90;;;;;;5054445;28;20447;-56
2023/07/20 02:36:17;;;;;;;2.00;1.43;;;15.00;99.90;;;;;;5054407;28;20444;-58
2023/07/20 02:38:44;;;;;;;1.50;1.40;;;15.00;99.90;;;;;;5054431;28;20480;-57
2023/07/20 02:41:12;;;;;;;4.63;1.90;;;15.00;99.90;;;;;;5054156;28;20451;-57
2023/07/20 02:43:39;;;;;;;1.60;1.50;;;15.00;99.90;;;;;;5054147;28;20444;-56
2023/07/20 02:46:06;;;;;;;8.07;1.53;;;15.00;99.90;;;;;;5054042;28;20450;-56
2023/07/20 02:48:33;;;;;;;1.70;1.60;;;15.00;99.90;;;;;;5053963;28;20467;-56
2023/07/20 02:51:00;;;;;;;1.47;1.37;;;15.00;99.90;;;;;;5052952;28;20455;-56
2023/07/20 02:53:26;;;;;;;2.00;1.40;;;15.00;99.90;;;;;;5053485;28;20456;-57
2023/07/20 02:55:53;;;;;;;1.40;1.30;;;15.00;99.90;;;;;;5053641;28;20909;-57
2023/07/20 02:58:21;;;;;;;3.90;1.67;;;15.10;99.90;;;;;;5053553;28;21019;-58
2023/07/20 03:00:48;;;;;;;1.90;1.40;;;15.10;99.90;;;;;;5053947;28;20444;-57
2023/07/20 03:03:15;;;;;;;1.80;1.60;;;15.20;99.90;;;;;;5053882;28;20465;-56
2023/07/20 03:05:42;;;;;;;1.30;1.20;;;15.20;99.90;;;;;;5053931;28;20441;-57
2023/07/20 03:08:09;;;;;;;1.70;1.27;;;15.30;99.90;;;;;;5053924;28;20818;-56
2023/07/20 03:10:40;;;;;;;2.33;1.67;;;15.30;99.90;;;;;;5053414;28;20471;-57
2023/07/20 03:13:07;;;;;;;1.60;1.50;;;15.30;99.90;;;;;;5054275;28;20480;-56
2023/07/20 03:15:35;;;;;;;2.30;1.60;;;15.30;99.90;;;;;;5053348;28;20453;-56
2023/07/20 03:18:02;;;;;;;1.30;1.20;;;15.40;99.90;;;;;;5053642;28;20476;-55
2023/07/20 03:20:29;;;;;;;3.10;1.60;;;15.40;99.90;;;;;;5054022;28;20539;-57
2023/07/20 03:22:56;;;;;;;2.20;1.57;;;15.40;99.90;;;;;;5053583;28;20521;-56
2023/07/20 03:25:23;;;;;;;1.90;1.43;;;15.40;99.90;;;;;;5053617;28;20493;-56
2023/07/20 03:27:50;;;;;;;1.30;1.20;;;15.40;99.90;;;;;;5053587;28;20487;-56
2023/07/20 03:30:17;;;;;;;2.10;1.53;;;15.40;99.90;;;;;;5053604;28;20452;-56
2023/07/20 03:32:45;;;;;;;3.03;1.57;;;15.40;99.90;;;;;;5053483;28;20551;-58
2023/07/20 03:35:12;;;;;;;1.93;1.50;;;15.40;99.90;;;;;;5053591;28;20441;-58
2023/07/20 03:37:39;;;;;;;2.43;1.60;;;15.40;99.90;;;;;;5053287;28;20483;-56
2023/07/20 03:40:07;;;;;;;1.60;1.50;;;15.50;99.90;;;;;;5053247;28;20818;-58
2023/07/20 03:42:34;;;;;;;2.07;1.50;;;15.50;99.90;;;;;;5053363;28;20480;-58
2023/07/20 03:45:01;;;;;;;3.33;1.57;;;15.50;99.90;;;;;;5053220;28;20475;-57
2023/07/20 03:47:27;;;;;;;1.33;1.23;;;15.50;99.90;;;;;;5053154;28;20821;-57
2023/07/20 03:49:56;;;;;;;1.53;1.43;;;15.60;99.90;;;;;;5052720;28;20456;-57
2023/07/20 03:52:23;;;;;;;1.20;1.10;;;15.60;99.90;;;;;;5053017;28;20507;-57
2023/07/20 03:54:51;;;;;;;1.73;1.20;;;15.60;99.90;;;;;;5053050;28;20455;-57
2023/07/20 03:57:17;;;;;;;3.73;1.40;;;15.70;99.90;;;;;;5052646;28;20907;-57
2023/07/20 03:59:46;;;;;;;1.50;1.40;;;15.70;99.90;;;;;;5052861;28;20449;-55
2023/07/20 04:02:13;;;;;;;1.53;1.33;;;15.70;99.90;;;;;;5052702;28;20465;-55
2023/07/20 04:04:40;;;;;;;2.73;1.57;;;15.70;99.90;;;;;;5053043;28;20445;-55
2023/07/20 04:07:08;;;;;;;2.13;1.57;;;15.70;99.90;;;;;;5053003;28;20479;-57
2023/07/20 04:11:58;;;;;;;1.63;1.53;;;15.70;99.90;;;;;;5091148;28;20623;-56
2023/07/20 04:14:25;;;;;;;2.17;1.80;;;15.70;99.90;;;;;;5090636;28;20442;-55
2023/07/20 04:16:52;;;;;;;2.03;1.73;;;15.80;99.90;;;;;;5090800;28;20482;-56
2023/07/20 04:19:19;;;;;;;1.70;1.60;;;15.70;99.90;;;;;;5090592;28;20443;-57
2023/07/20 04:21:45;;;;;;;2.10;1.77;;;15.60;99.90;;;;;;5090336;28;20461;-57
2023/07/20 04:24:12;;;;;;;3.83;2.20;;;15.40;99.90;;;;;;5089894;28;21019;-56
2023/07/20 04:26:39;;;;;;;3.03;2.30;;;15.30;99.90;;;;;;5090163;28;20944;-57
2023/07/20 04:29:07;;;;;;;5.30;2.53;;;15.20;99.90;;;;;;5090388;28;20446;-55
2023/07/20 04:31:34;;;;;;;2.57;2.23;;;15.00;99.90;;;;;;5089938;28;20995;-56
2023/07/20 04:34:01;;;;;;;2.80;2.10;;;14.90;99.90;;;;;;5090479;28;20871;-58
2023/07/20 04:36:27;;;;;;;2.50;1.93;;;14.70;99.90;;;;;;5090589;28;20446;-58
2023/07/20 04:38:54;;;;;;;5.73;2.30;;;14.60;99.90;;;;;;5090410;28;21015;-59
2023/07/20 04:41:21;;;;;;;3.00;2.40;;;14.50;99.90;;;;;;5090746;28;20539;-58
2023/07/20 04:43:48;;;;;;;2.50;2.07;;;14.40;99.90;;;;;;5090801;28;20491;-59
2023/07/20 04:46:17;;;;;;;2.93;2.63;;;14.40;99.90;;;;;;5090730;28;20465;-59
2023/07/20 04:48:44;;;;;;;2.43;2.23;;;14.30;99.90;;;;;;5090257;28;20450;-58
2023/07/20 04:51:11;;;;;;;2.70;1.70;;;14.30;99.90;;;;;;5090126;28;20508;-57
2023/07/20 04:53:38;;;;;;;7.33;2.87;;;14.30;99.90;;;;;;5089892;28;20450;-57
2023/07/20 04:56:05;;;;;;;2.40;2.20;;;14.20;99.90;;;;;;5089716;28;20452;-57
2023/07/20 04:58:32;;;;;;;3.00;2.43;;;14.20;99.90;;;;;;5090122;28;20452;-58
2023/07/20 05:00:58;;;;;;;3.80;2.63;;;14.20;99.90;;;;;;5089497;28;20533;-57
2023/07/20 05:03:27;;;;;;;4.70;3.10;;;14.10;99.90;;;;;;5089790;28;20450;-58
2023/07/20 05:05:55;;;;;;;4.23;2.70;;;14.20;99.90;;;;;;5089430;28;20545;-57
2023/07/20 05:08:23;;;;;;;4.07;3.67;;;14.20;99.90;;;;;;5089698;28;20446;-57
2023/07/20 05:10:49;;;;;;;3.93;3.57;;;14.20;99.90;;;;;;5089211;28;20548;-58
2023/07/20 05:13:16;;;;;;;4.73;3.87;;;14.20;99.90;;;;;;5089478;28;20465;-57
2023/07/20 05:15:43;;;;;;;5.60;4.87;;;14.10;99.90;;;;;;5089965;28;20516;-58
2023/07/20 05:18:10;;;;;;;5.30;4.73;;;14.20;99.90;;;;;;5089520;28;20442;-59
2023/07/20 05:20:38;;;;;;;5.30;4.80;;;14.10;99.90;;;;;;5089230;28;20471;-59
2023/07/20 05:23:05;;;;;;;4.97;4.57;;;14.20;99.90;;;;;;5077761;28;20846;-59
2023/07/20 05:25:32;;;;;;;5.60;4.40;;;14.20;99.90;;;;;;5077503;28;20445;-59
2023/07/20 05:27:59;;;;;;;5.50;4.97;;;14.20;99.90;;;;;;5075980;28;20858;-58
2023/07/20 05:30:26;;;;;;;4.90;3.67;;;14.30;99.90;;;;;;5075422;28;20479;-57
2023/07/20 05:32:54;;;;;;;3.93;3.53;;;14.30;99.90;;;;;;5075470;28;20466;-58
2023/07/20 05:35:22;;;;;;;6.23;3.67;;;14.30;99.90;;;;;;5075498;28;20514;-57
2023/07/20 05:37:50;;;;;;;4.57;4.17;;;14.30;99.90;;;;;;5075455;28;20451;-57
2023/07/20 05:40:18;;;;;;;7.17;3.30;;;14.30;99.90;;;;;;5076707;28;20447;-56
2023/07/20 05:42:46;;;;;;;3.60;3.30;;;14.30;99.90;;;;;;5075528;28;21014;-57
2023/07/20 05:45:13;;;;;;;4.33;3.93;;;14.30;99.90;;;;;;5075588;28;20443;-56
2023/07/20 05:47:40;;;;;;;3.80;3.50;;;14.30;99.90;;;;;;5075589;28;20447;-56
2023/07/20 05:50:07;;;;;;;4.30;3.90;;;14.30;99.90;;;;;;5075560;28;20443;-57
2023/07/20 05:52:34;;;;;;;4.77;4.27;;;14.30;99.90;;;;;;5075595;28;20471;-56
2023/07/20 05:55:03;;;;;;;4.70;4.30;;;14.30;99.90;;;;;;5077320;28;20444;-57
2023/07/20 05:57:29;;;;;;;4.47;4.07;;;14.30;99.90;;;;;;5075222;28;20447;-56
2023/07/20 05:59:56;;;;;;;4.47;4.17;;;14.40;99.90;;;;;;5075539;28;20457;-56
2023/07/20 06:02:23;;;;;;;4.50;3.83;;;14.40;99.90;;;;;;5075238;28;20463;-57
2023/07/20 06:04:50;;;;;;;4.90;4.00;;;14.40;99.90;;;;;;5074772;28;20446;-56
2023/07/20 06:07:17;;;;;;;4.63;4.23;;;14.50;99.90;;;;;;5075214;28;20480;-56
2023/07/20 06:09:44;;;;;;;3.33;3.13;;;14.50;99.90;;;;;;5075022;28;20450;-57
2023/07/20 06:12:12;;;;;;;4.23;3.83;;;14.50;99.90;;;;;;5075108;28;20483;-56
2023/07/20 06:14:39;;;;;;;5.10;3.77;;;14.50;99.90;;;;;;5075121;28;21001;-58
2023/07/20 06:17:06;;;;;;;4.27;3.87;;;14.60;99.90;;;;;;5075649;28;20451;-57
2023/07/20 06:19:33;;;;;;;5.17;3.90;;;14.70;99.90;;;;;;5075699;28;20443;-59
2023/07/20 06:22:00;;;;;;;4.13;3.77;;;14.80;99.90;;;;;;5074974;28;20968;-57
2023/07/20 06:24:27;;;;;;;4.13;3.00;;;14.90;99.90;;;;;;5075679;28;20770;-56
2023/07/20 06:26:53;;;;;;;3.50;3.20;;;15.00;99.90;;;;;;5075468;28;20456;-57
2023/07/20 06:29:22;;;;;;;3.97;3.20;;;15.10;99.90;;;;;;5075689;28;20443;-58
2023/07/20 06:31:48;;;;;;;3.20;2.90;;;15.20;99.90;;;;;;5075577;28;20503;-56
2023/07/20 06:34:15;;;;;;;9.20;2.70;;;15.30;99.90;;;;;;5074339;28;20443;-58
2023/07/20 06:36:42;;;;;;;3.40;3.10;;;15.30;99.90;;;;;;5075601;28;20448;-57
2023/07/20 06:39:09;;;;;;;3.80;3.37;;;15.40;99.90;;;;;;5075623;28;20443;-58
2023/07/20 06:41:35;;;;;;;3.67;3.37;;;15.50;99.90;;;;;;5075638;28;20469;-57
2023/07/20 06:44:03;;;;;;;3.17;2.97;;;15.50;99.90;;;;;;5075437;28;20447;-57
2023/07/20 06:46:31;;;;;;;3.50;3.20;;;15.60;99.90;;;;;;5074523;28;20439;-57
2023/07/20 06:48:57;;;;;;;4.20;3.80;;;15.60;99.90;;;;;;5074095;28;20445;-57
2023/07/20 06:51:24;;;;;;;6.67;4.30;;;15.70;99.90;;;;;;5074313;28;20576;-56
2023/07/20 06:53:51;;;;;;;3.93;3.63;;;15.60;99.90;;;;;;5074388;28;20454;-57
2023/07/20 06:56:18;;;;;;;4.27;3.83;;;15.70;99.90;;;;;;5073661;22;20495;-60
2023/07/20 06:58:44;;;;;;;4.07;3.77;;;15.80;99.90;;;;;;5035242;28;20449;-59
2023/07/20 07:01:11;;;;;;;3.90;3.60;;;16.10;99.90;;;;;;5034945;28;20439;-58
2023/07/20 07:03:39;;;;;;;4.00;3.70;;;16.30;99.90;;;;;;5034886;28;20523;-60
2023/07/20 07:06:06;;;;;;;3.33;3.03;;;16.50;99.90;;;;;;5035270;28;20482;-59
2023/07/20 07:08:33;;;;;;;3.57;3.27;;;16.70;99.90;;;;;;5034882;28;20494;-58
2023/07/20 07:11:00;;;;;;;3.00;2.80;;;16.90;99.90;;;;;;5034689;28;20532;-60
2023/07/20 07:13:26;;;;;;;3.23;2.87;;;17.00;99.90;;;;;;5034265;28;20447;-59
2023/07/20 07:15:53;;;;;;;3.27;2.97;;;17.00;99.90;;;;;;5034640;28;20471;-60
2023/07/20 07:18:21;;;;;;;3.23;2.93;;;16.90;99.90;;;;;;5034985;28;20457;-60
2023/07/20 07:20:55;;;;;;;4.00;3.10;;;17.00;99.90;;;;;;5034452;28;20513;-59
2023/07/20 07:23:21;;;;;;;3.77;3.20;;;17.20;99.90;;;;;;5035219;28;20443;-60
2023/07/20 07:25:49;;;;;;;2.60;2.40;;;17.40;99.90;;;;;;5035237;28;20462;-60
2023/07/20 07:28:15;;;;;;;2.60;2.40;;;17.50;99.90;;;;;;5034576;28;20547;-59
2023/07/20 07:30:42;;;;;;;2.30;2.10;;;17.70;99.90;;;;;;5034334;28;20933;-60
2023/07/20 07:33:09;;;;;;;2.40;2.20;;;17.90;99.90;;;;;;5034752;28;20547;-60
2023/07/20 07:35:36;;;;;;;2.47;2.00;;;18.20;99.90;;;;;;5037441;28;20472;-60
2023/07/20 07:38:05;;;;;;;3.63;2.07;;;18.50;99.90;;;;;;5038180;28;20452;-60
2023/07/20 07:40:32;;;;;;;3.13;2.27;;;18.80;99.90;;;;;;5034916;28;20443;-60
2023/07/20 07:42:58;;;;;;;3.47;3.17;;;18.60;99.90;;;;;;5034084;28;20447;-59
2023/07/20 07:45:25;;;;;;;2.97;2.77;;;18.30;99.90;;;;;;5033406;28;20811;-59
2023/07/20 07:47:52;;;;;;;4.90;3.53;;;18.00;99.90;;;;;;5034153;28;20455;-61
2023/07/20 07:50:19;;;;;;;3.00;2.80;;;17.90;99.90;;;;;;5034419;28;20501;-60
2023/07/20 07:52:46;;;;;;;3.73;2.90;;;18.00;99.90;;;;;;5033402;28;20486;-58
2023/07/20 07:55:16;;;;;;;3.50;3.20;;;18.30;99.90;;;;;;5034115;28;20516;-59
2023/07/20 07:57:43;;;;;;;2.90;2.70;;;18.60;98.90;;;;;;5034172;28;20767;-60
2023/07/20 08:00:14;;;;;;;3.87;3.03;;;18.90;97.70;;;;;;5034312;28;20455;-62
2023/07/20 08:02:41;;;;;;;5.20;2.93;;;19.20;96.20;;;;;;5034216;28;20433;-60
2023/07/20 08:05:08;;;;;;;5.50;2.80;;;19.10;94.80;;;;;;5033936;28;20554;-61
2023/07/20 08:07:35;;;;;;;2.20;2.07;;;18.80;95.00;;;;;;5034228;28;20841;-60
2023/07/20 08:10:02;;;;;;;2.03;1.73;;;18.70;95.30;;;;;;5034854;28;20953;-61
2023/07/20 08:12:30;;;;;;;2.80;1.63;;;18.70;94.60;;;;;;5034349;28;20484;-61
2023/07/20 08:14:57;;;;;;;2.37;1.83;;;18.90;93.30;;;;;;5034377;28;20452;-64
2023/07/20 08:17:24;;;;;;;2.10;1.80;;;19.10;91.30;;;;;;5033840;28;20449;-60
2023/07/20 08:19:51;;;;;;;2.20;1.67;;;19.40;89.70;;;;;;5033712;28;20939;-60
2023/07/20 08:22:17;;;;;;;1.47;1.37;;;19.70;87.00;;;;;;5034128;28;20449;-61
2023/07/20 08:24:45;;;;;;;1.40;1.30;;;19.80;82.30;;;;;;5033976;28;20839;-61
2023/07/20 08:27:12;;;;;;;2.30;1.50;;;19.70;79.50;;;;;;5034458;28;20449;-60
2023/07/20 08:29:40;;;;;;;1.90;1.27;;;19.80;78.00;;;;;;5034196;28;20441;-62
2023/07/20 08:32:08;;;;;;;1.40;1.30;;;20.20;76.20;;;;;;5034441;28;20876;-60
2023/07/20 08:34:35;;;;;;;2.03;1.70;;;20.50;74.00;;;;;;5033803;28;20495;-60
2023/07/20 08:37:01;;;;;;;1.80;1.60;;;20.60;71.10;;;;;;5033683;28;21013;-60
2023/07/20 08:39:28;;;;;;;2.10;1.90;;;20.40;70.50;;;;;;5033429;28;20457;-60
2023/07/20 08:41:56;;;;;;;2.20;2.00;;;20.00;71.00;;;;;;5033684;28;20445;-61
2023/07/20 08:44:24;;;;;;;2.30;1.63;;;19.70;72.20;;;;;;5033807;28;20445;-59
2023/07/20 08:46:53;;;;;;;1.67;1.57;;;19.50;71.70;;;;;;5033579;28;20877;-60
2023/07/20 08:49:20;;;;;;;3.77;1.67;;;19.30;71.80;;;;;;5033637;28;20460;-60
2023/07/20 08:51:48;;;;;;;1.73;1.63;;;19.40;71.40;;;;;;5033150;28;20503;-60
2023/07/20 08:54:17;;;;;;;1.80;1.70;;;19.70;70.50;;;;;;5033662;28;20449;-61
2023/07/20 08:56:46;;;;;;;2.40;1.67;;;20.10;68.80;;;;;;5033587;28;20497;-59
2023/07/20 08:59:14;;;;;;;2.23;1.70;;;20.40;67.50;;;;;;5036885;28;20455;-60
2023/07/20 09:01:41;;;;;;;1.80;1.20;;;20.50;66.00;;;;;;5037639;28;20437;-61
2023/07/20 09:04:09;;;;;;;1.87;1.67;;;20.60;64.50;;;;;;5037451;28;20499;-60
2023/07/20 09:06:36;;;;;;;1.97;1.60;;;20.50;62.90;;;;;;5037544;28;20889;-60
2023/07/20 09:09:03;;;;;;;2.13;1.30;;;20.70;62.50;;;;;;5036901;28;20445;-61
2023/07/20 09:11:30;;;;;;;1.30;1.20;;;20.60;61.60;;;;;;5037646;28;20477;-60
2023/07/20 09:14:08;;;;;;;2.03;1.40;;;20.50;61.50;;;;;;5037472;28;20444;-60
2023/07/20 09:16:48;;;;;;;1.37;1.27;;;20.20;61.20;;;;;;5038516;28;20492;-60
2023/07/20 09:19:18;;;;;;;2.50;1.60;;;19.90;61.60;;;;;;5036493;28;20938;-60
2023/07/20 09:21:48;;;;;;;1.70;1.60;;;19.90;62.00;;;;;;5036700;28;21006;-60
2023/07/20 09:24:16;;;;;;;1.70;1.10;;;19.90;62.40;;;;;;5036963;28;20437;-59
2023/07/20 09:26:44;;;;;;;1.43;1.23;;;20.10;62.20;;;;;;5037072;28;20554;-60
2023/07/20 09:29:11;;;;;;;1.60;1.20;;;20.40;61.00;;;;;;5036945;28;20538;-60
2023/07/20 09:31:38;;;;;;;1.50;1.30;;;20.50;60.10;;;;;;5037164;28;20519;-61
2023/07/20 09:34:06;;;;;;;2.17;1.33;;;20.80;59.50;;;;;;5036983;28;20445;-60
2023/07/20 09:36:37;;;;;;;3.57;0.90;;;21.00;58.70;;;;;;5036703;28;20475;-61
2023/07/20 09:39:04;;;;;;;3.90;0.83;;;21.10;57.40;;;;;;5037257;28;20440;-61
2023/07/20 09:41:41;;;;;;;1.10;0.60;;;21.30;55.30;;;;;;5037218;28;20878;-59
2023/07/20 09:44:10;;;;;;;1.43;1.17;;;21.50;53.50;;;;;;5037900;28;20830;-60
2023/07/20 09:46:43;;;;;;;4.40;1.07;;;21.40;52.30;;;;;;5037343;28;20515;-58
2023/07/20 09:49:10;;;;;;;1.43;1.00;;;21.20;52.40;;;;;;5037270;28;20446;-61
2023/07/20 09:51:39;;;;;;;2.30;1.40;;;21.10;53.10;;;;;;5036798;28;20995;-60
2023/07/20 09:54:07;;;;;;;1.03;0.93;;;21.30;53.40;;;;;;5036955;28;20434;-60
2023/07/20 09:56:34;;;;;;;1.53;0.77;;;21.50;53.20;;;;;;5036850;28;20521;-61
2023/07/20 09:59:01;;;;;;;1.87;0.83;;;21.60;53.00;;;;;;5037286;28;20492;-58
2023/07/20 10:01:30;;;;;;;2.60;1.00;;;21.70;51.90;;;;;;5036898;28;20452;-62
2023/07/20 10:04:01;;;;;;;1.77;1.10;;;21.70;51.00;;;;;;5037073;28;20448;-60
2023/07/20 10:06:30;;;;;;;0.80;0.80;;;21.70;50.40;;;;;;5036834;28;20465;-60
2023/07/20 10:09:03;;;;;;;0.80;0.80;;;21.90;49.60;;;;;;5036298;28;20820;-60
2023/07/20 10:11:32;;;;;;;4.00;1.03;;;21.90;49.00;;;;;;5037350;28;20437;-60
2023/07/20 10:14:02;;;;;;;1.53;0.70;;;22.00;49.20;;;;;;5036805;28;20458;-60
2023/07/20 10:16:33;;;;;;;0.83;0.70;;;22.00;49.00;;;;;;5036796;28;20538;-61
2023/07/20 10:19:06;;;;;;;1.20;0.90;;;22.20;48.90;;;;;;5036497;28;20449;-60
2023/07/20 10:21:36;;;;;;;1.90;1.10;;;22.50;48.70;;;;;;5036418;28;20426;-60
2023/07/20 10:24:05;;;;;;;2.10;1.10;;;22.70;48.30;;;;;;5036820;28;20454;-62
2023/07/20 10:26:32;;;;;;;2.03;1.20;;;22.70;48.00;;;;;;5036033;28;20468;-60
2023/07/20 10:29:00;;;;;;;2.20;1.13;;;22.70;47.90;;;;;;5036037;28;20461;-60
2023/07/20 10:31:28;;;;;;;1.80;0.70;;;22.80;47.90;;;;;;5036417;28;20449;-62
2023/07/20 10:33:57;;;;;;;1.20;0.83;;;22.80;47.50;;;;;;5036237;28;20433;-62
2023/07/20 10:36:27;;;;;;;1.37;1.00;;;22.70;47.30;;;;;;5035121;28;20465;-60
2023/07/20 10:38:55;;;;;;;4.43;1.33;;;22.50;46.70;;;;;;5036774;28;20441;-61
2023/07/20 10:41:29;;;;;;;1.00;0.80;;;22.20;47.10;;;;;;5035873;28;20449;-61
2023/07/20 10:44:00;;;;;;;2.40;1.10;;;21.90;47.60;;;;;;5035464;28;20896;-61
2023/07/20 10:46:44;;;;;;;1.87;1.10;;;21.60;48.10;;;;;;5035847;28;20453;-60
2023/07/20 10:49:12;;;;;;;2.50;1.00;;;21.40;48.70;;;;;;5036116;28;20449;-59
2023/07/20 10:51:43;;;;;;;0.97;0.83;;;21.40;49.20;;;;;;5036859;28;20540;-61
2023/07/20 10:54:34;;;;;;;3.50;1.03;;;21.60;48.80;;;;;;5036765;28;20516;-60
2023/07/20 10:57:23;;;;;;;2.13;1.10;;;21.80;48.40;;;;;;5036119;28;20533;-61
2023/07/20 10:59:50;;;;;;;1.00;0.80;;;21.80;48.10;;;;;;5037432;28;20436;-60
2023/07/20 11:02:19;;;;;;;1.27;1.00;;;21.70;48.10;;;;;;5037579;28;20441;-61
2023/07/20 11:04:47;;;;;;;1.40;0.93;;;21.60;48.40;;;;;;5038563;28;20444;-61
2023/07/20 11:07:17;;;;;;;1.23;0.80;;;21.60;48.60;;;;;;5039395;28;20495;-61
2023/07/20 11:09:44;;;;;;;1.47;0.80;;;21.60;48.70;;;;;;5038623;28;20821;-61
2023/07/20 11:12:14;;;;;;;1.67;0.90;;;21.80;48.70;;;;;;5038114;28;20527;-60
2023/07/20 11:14:53;;;;;;;1.97;1.03;;;22.10;48.10;;;;;;5041102;28;20464;-62
2023/07/20 11:17:22;;;;;;;2.53;1.00;;;22.30;47.60;;;;;;5038078;28;20437;-61
2023/07/20 11:19:50;;;;;;;1.50;0.80;;;22.60;47.20;;;;;;5038652;28;20982;-61
2023/07/20 11:22:18;;;;;;;1.47;0.70;;;22.90;46.70;;;;;;5039594;28;20442;-61
2023/07/20 11:24:45;;;;;;;1.33;0.83;;;23.10;46.20;;;;;;5035742;28;20445;-63
2023/07/20 11:27:13;;;;;;;1.60;1.03;;;23.10;46.40;;;;;;5036157;28;20456;-59
2023/07/20 11:29:40;;;;;;;1.00;0.90;;;23.20;46.60;;;;;;5035116;28;20453;-61
2023/07/20 11:32:07;;;;;;;1.30;1.10;;;23.30;47.00;;;;;;5035132;28;20446;-62
2023/07/20 11:34:35;;;;;;;2.27;1.10;;;23.60;46.90;;;;;;5035316;28;20441;-60
2023/07/20 11:37:03;;;;;;;1.07;0.90;;;23.90;46.60;;;;;;5035421;28;20523;-60
2023/07/20 11:39:30;;;;;;;1.87;1.20;;;24.10;46.10;;;;;;5035168;28;20511;-60
2023/07/20 11:41:58;;;;;;;1.07;0.80;;;23.90;45.50;;;;;;5034841;28;20454;-60
2023/07/20 11:44:28;;;;;;;1.10;0.90;;;23.60;46.00;;;;;;5034899;28;20947;-60
2023/07/20 11:47:03;;;;;;;1.50;1.20;;;23.30;46.50;;;;;;5035184;28;20556;-61
2023/07/20 11:49:30;;;;;;;3.10;1.17;;;23.00;46.00;;;;;;5035231;28;20499;-63
2023/07/20 11:51:58;;;;;;;1.27;0.77;;;22.60;46.40;;;;;;5035002;28;20885;-61
2023/07/20 11:54:25;;;;;;;1.67;0.90;;;22.50;46.20;;;;;;5034920;28;20858;-60
2023/07/20 11:56:55;;;;;;;1.27;0.93;;;22.60;46.00;;;;;;5034535;28;20477;-61
2023/07/20 11:59:22;;;;;;;1.20;0.80;;;22.80;45.90;;;;;;5034924;28;20437;-61
2023/07/20 12:01:50;;;;;;;2.27;1.10;;;23.00;45.80;;;;;;5034805;28;20448;-59
2023/07/20 12:04:17;;;;;;;3.77;1.20;;;23.30;45.50;;;;;;5035457;28;20512;-61
2023/07/20 12:06:45;;;;;;;0.90;0.80;;;24.00;44.70;;;;;;5035244;28;20500;-59
2023/07/20 12:09:15;;;;;;;1.53;0.80;;;24.70;43.50;;;;;;5034347;28;20808;-59
2023/07/20 12:11:44;;;;;;;1.47;0.80;;;25.30;42.40;;;;;;5035016;28;20429;-58
2023/07/20 12:14:11;;;;;;;1.60;0.90;;;25.70;41.00;;;;;;5034472;28;20477;-61
2023/07/20 12:16:38;;;;;;;1.27;0.80;;;26.00;40.50;;;;;;5035030;28;20552;-61
2023/07/20 12:19:07;;;;;;;1.10;0.83;;;26.40;40.50;;;;;;5035417;28;20499;-62
2023/07/20 12:21:36;;;;;;;1.80;0.80;;;26.90;39.10;;;;;;5037618;28;20445;-63
2023/07/20 12:24:04;;;;;;;3.87;1.13;;;26.60;38.30;;;;;;5037622;28;20450;-60
2023/07/20 12:26:32;;;;;;;2.17;1.10;;;25.80;39.40;;;;;;5036784;28;20500;-60
2023/07/20 12:28:59;;;;;;;2.13;0.93;;;25.00;40.10;;;;;;5034726;28;20480;-60
2023/07/20 12:31:27;;;;;;;2.73;1.00;;;24.40;40.90;;;;;;5034725;28;20441;-60
2023/07/20 12:33:55;;;;;;;2.30;1.03;;;23.90;41.30;;;;;;5038220;28;20483;-59
2023/07/20 12:36:23;;;;;;;3.27;1.10;;;23.60;42.10;;;;;;5038296;28;20492;-60
2023/07/20 12:38:50;;;;;;;0.93;0.73;;;23.50;42.70;;;;;;5038812;28;20456;-60
2023/07/20 12:41:17;;;;;;;2.27;0.97;;;23.20;43.20;;;;;;5038774;28;20444;-59
2023/07/20 12:43:45;;;;;;;1.30;0.90;;;23.20;43.70;;;;;;5037939;28;20450;-60
2023/07/20 12:46:13;;;;;;;2.40;1.03;;;23.60;43.40;;;;;;5037844;28;20527;-60
2023/07/20 12:48:41;;;;;;;2.50;1.00;;;23.80;42.90;;;;;;5037982;28;20945;-61
2023/07/20 12:51:08;;;;;;;1.57;0.90;;;23.90;42.60;;;;;;5038722;28;20457;-60
2023/07/20 12:53:37;;;;;;;1.87;0.90;;;23.90;42.50;;;;;;5038133;28;20477;-60
2023/07/20 12:56:04;;;;;;;2.93;0.97;;;23.80;42.80;;;;;;5037953;28;21107;-60